createdAt,value
2023-04-16T00:02:00.222Z,1.85
2023-04-16T00:04:27.102Z,1.80
2023-04-16T00:06:54.585Z,1.60
2023-04-16T00:09:23.360Z,1.40
2023-04-16T00:11:50.254Z,1.50
2023-04-16T00:14:17.026Z,2.08
2023-04-16T00:16:43.790Z,1.48
2023-04-16T00:19:10.796Z,1.52
2023-04-16T00:21:37.693Z,1.80
2023-04-16T00:24:04.526Z,1.35
2023-04-16T00:26:31.457Z,1.30
2023-04-16T00:28:58.155Z,1.38
2023-04-16T00:31:29.469Z,1.08
2023-04-16T00:33:56.668Z,1.05
2023-04-16T00:36:24.586Z,1.20
2023-04-16T00:38:51.613Z,1.17
2023-04-16T00:41:18.580Z,1.42
2023-04-16T00:43:45.613Z,1.20
2023-04-16T00:46:12.838Z,1.52
2023-04-16T00:48:41.630Z,1.58
2023-04-16T00:51:09.159Z,1.30
2023-04-16T00:53:36.428Z,1.83
2023-04-16T00:56:05.204Z,1.60
2023-04-16T00:58:33.458Z,1.30
2023-04-16T01:01:00.947Z,1.77
2023-04-16T01:03:35.824Z,1.40
2023-04-16T01:06:03.076Z,1.50
2023-04-16T01:08:29.845Z,1.63
2023-04-16T01:10:56.706Z,1.67
2023-04-16T01:13:23.462Z,1.63
2023-04-16T01:15:50.234Z,1.60
2023-04-16T01:18:19.138Z,1.77
2023-04-16T01:20:46.914Z,1.40
2023-04-16T01:23:14.268Z,1.50
2023-04-16T01:25:41.107Z,1.95
2023-04-16T01:28:08.002Z,1.70
2023-04-16T01:30:34.709Z,1.60
2023-04-16T01:33:01.598Z,1.60
2023-04-16T01:35:28.718Z,1.35
2023-04-16T01:37:55.720Z,1.73
2023-04-16T01:40:22.484Z,1.48
2023-04-16T01:42:49.340Z,2.83
2023-04-16T01:45:16.222Z,2.53
2023-04-16T01:47:43.219Z,2.65
2023-04-16T01:50:10.482Z,2.42
2023-04-16T01:52:37.272Z,1.85
2023-04-16T01:55:04.267Z,2.40
2023-04-16T01:57:31.356Z,1.92
2023-04-16T01:59:58.268Z,2.20
2023-04-16T02:02:29.397Z,2.38
2023-04-16T02:04:57.423Z,2.08
2023-04-16T02:07:25.516Z,2.30
2023-04-16T02:09:52.241Z,2.38
2023-04-16T02:12:19.405Z,2.00
2023-04-16T02:14:46.367Z,2.40
2023-04-16T02:17:13.407Z,2.40
2023-04-16T02:19:40.166Z,3.03
2023-04-16T02:22:07.134Z,2.40
2023-04-16T02:24:33.888Z,3.55
2023-04-16T02:27:01.480Z,2.65
2023-04-16T02:29:28.521Z,2.58
2023-04-16T02:31:55.282Z,2.70
2023-04-16T02:34:22.093Z,2.50
2023-04-16T02:36:48.801Z,2.40
2023-04-16T02:39:15.893Z,2.10
2023-04-16T02:41:42.734Z,1.60
2023-04-16T02:44:09.554Z,1.40
2023-04-16T02:46:36.337Z,1.35
2023-04-16T02:49:03.167Z,1.17
2023-04-16T02:51:29.935Z,1.33
2023-04-16T02:53:56.615Z,1.30
2023-04-16T02:56:23.358Z,1.00
2023-04-16T02:58:50.029Z,1.05
2023-04-16T03:01:18.133Z,0.77
2023-04-16T03:03:45.006Z,1.30
2023-04-16T03:06:11.740Z,1.27
2023-04-16T03:08:38.487Z,1.67
2023-04-16T03:11:05.247Z,1.58
2023-04-16T03:13:32.011Z,2.17
2023-04-16T03:15:58.779Z,1.60
2023-04-16T03:18:25.550Z,1.30
2023-04-16T03:20:53.332Z,1.10
2023-04-16T03:23:20.331Z,1.52
2023-04-16T03:25:48.033Z,1.10
2023-04-16T03:28:14.987Z,2.10
2023-04-16T03:30:41.892Z,4.28
2023-04-16T03:33:08.606Z,2.28
2023-04-16T03:35:35.445Z,2.63
2023-04-16T03:38:02.156Z,2.97
2023-04-16T03:40:28.965Z,2.58
2023-04-16T03:42:55.735Z,2.17
2023-04-16T03:45:22.539Z,2.20
2023-04-16T03:47:52.795Z,1.75
2023-04-16T03:50:19.943Z,1.40
2023-04-16T03:52:49.309Z,2.00
2023-04-16T03:55:16.126Z,2.55
2023-04-16T03:57:43.014Z,2.17
2023-04-16T04:00:10.114Z,1.90
2023-04-16T04:02:37.009Z,1.75
2023-04-16T04:05:04.143Z,1.67
2023-04-16T04:07:31.000Z,2.10
2023-04-16T04:09:57.751Z,2.42
2023-04-16T04:12:24.490Z,2.67
2023-04-16T04:14:51.311Z,2.13
2023-04-16T04:17:18.083Z,1.92
2023-04-16T04:19:58.117Z,2.35
2023-04-16T04:22:27.574Z,2.00
2023-04-16T04:24:54.290Z,2.10
2023-04-16T04:27:20.996Z,1.85
2023-04-16T04:29:47.730Z,1.70
2023-04-16T04:32:14.632Z,1.45
2023-04-16T04:34:41.383Z,1.30
2023-04-16T04:37:08.176Z,1.75
2023-04-16T04:39:35.120Z,1.35
2023-04-16T04:42:03.307Z,1.13
2023-04-16T04:44:30.183Z,1.13
2023-04-16T04:46:56.958Z,1.63
2023-04-16T04:49:23.754Z,1.30
2023-04-16T04:51:50.599Z,1.83
2023-04-16T04:54:17.394Z,2.38
2023-04-16T04:56:47.290Z,2.00
2023-04-16T04:59:14.022Z,1.70
2023-04-16T05:01:41.103Z,1.60
2023-04-16T05:04:08.098Z,2.22
2023-04-16T05:06:34.994Z,1.60
2023-04-16T05:09:01.832Z,1.58
2023-04-16T05:11:29.780Z,2.00
2023-04-16T05:13:56.937Z,2.28
2023-04-16T05:16:23.725Z,2.40
2023-04-16T05:18:50.492Z,3.00
2023-04-16T05:21:17.231Z,3.72
2023-04-16T05:23:43.964Z,2.88
2023-04-16T05:26:10.820Z,2.00
2023-04-16T05:28:37.685Z,2.08
2023-04-16T05:31:04.667Z,2.20
2023-04-16T05:33:32.014Z,1.70
2023-04-16T05:35:59.113Z,1.30
2023-04-16T05:38:25.902Z,1.23
2023-04-16T05:40:52.792Z,1.40
2023-04-16T05:43:19.617Z,1.00
2023-04-16T05:45:46.468Z,1.70
2023-04-16T05:48:13.871Z,1.10
2023-04-16T05:50:40.753Z,1.40
2023-04-16T05:53:08.854Z,1.20
2023-04-16T05:55:38.712Z,1.48
2023-04-16T05:58:05.624Z,1.58
2023-04-16T06:00:35.978Z,1.45
2023-04-16T06:03:03.251Z,1.33
2023-04-16T06:05:30.375Z,1.15
2023-04-16T06:07:58.111Z,1.23
2023-04-16T06:10:24.898Z,1.25
2023-04-16T06:12:51.675Z,1.42
2023-04-16T06:15:18.547Z,1.00
2023-04-16T06:17:45.990Z,1.40
2023-04-16T06:20:13.139Z,1.35
2023-04-16T06:22:39.988Z,1.40
2023-04-16T06:25:07.337Z,1.27
2023-04-16T06:27:34.348Z,1.40
2023-04-16T06:30:01.165Z,1.42
2023-04-16T06:32:27.982Z,1.90
2023-04-16T06:34:55.338Z,1.80
2023-04-16T06:37:22.106Z,2.15
2023-04-16T06:39:48.969Z,3.15
2023-04-16T06:42:15.823Z,5.28
2023-04-16T06:44:42.627Z,4.75
2023-04-16T06:47:09.598Z,2.22
2023-04-16T06:49:39.599Z,2.10
2023-04-16T06:52:06.889Z,2.08
2023-04-16T06:54:33.960Z,1.90
2023-04-16T06:57:00.734Z,2.05
2023-04-16T06:59:27.635Z,2.13
2023-04-16T07:01:54.588Z,2.00
2023-04-16T07:04:23.364Z,2.45
2023-04-16T07:06:50.324Z,2.10
2023-04-16T07:09:18.156Z,2.35
2023-04-16T07:11:45.407Z,2.50
2023-04-16T07:14:12.343Z,2.53
2023-04-16T07:16:39.307Z,2.17
2023-04-16T07:19:06.580Z,2.30
2023-04-16T07:21:33.440Z,1.98
2023-04-16T07:24:00.961Z,2.70
2023-04-16T07:26:27.777Z,2.88
2023-04-16T07:28:54.793Z,2.78
2023-04-16T07:31:21.699Z,2.35
2023-04-16T07:33:48.621Z,2.30
2023-04-16T07:36:15.444Z,2.50
2023-04-16T07:38:42.326Z,2.40
2023-04-16T07:41:09.130Z,2.40
2023-04-16T07:43:36.101Z,2.67
2023-04-16T07:46:03.143Z,2.65
2023-04-16T07:48:29.957Z,3.00
2023-04-16T07:50:57.079Z,3.17
2023-04-16T07:53:23.917Z,3.00
2023-04-16T07:55:50.907Z,2.90
2023-04-16T07:58:17.708Z,2.65
2023-04-16T08:00:45.700Z,2.67
2023-04-16T08:03:12.984Z,2.70
2023-04-16T08:05:39.931Z,2.63
2023-04-16T08:08:06.801Z,2.50
2023-04-16T08:10:33.779Z,2.33
2023-04-16T08:13:01.685Z,2.70
2023-04-16T08:15:28.681Z,2.47
2023-04-16T08:17:55.839Z,3.53
2023-04-16T08:20:22.816Z,3.05
2023-04-16T08:22:49.593Z,3.05
2023-04-16T08:25:16.558Z,2.97
2023-04-16T08:27:43.377Z,2.90
2023-04-16T08:30:10.383Z,2.90
2023-04-16T08:32:37.245Z,2.85
2023-04-16T08:35:04.438Z,2.67
2023-04-16T08:37:31.251Z,3.17
2023-04-16T08:39:57.972Z,3.08
2023-04-16T08:42:33.236Z,3.13
2023-04-16T08:45:17.170Z,2.70
2023-04-16T08:47:51.918Z,2.80
2023-04-16T08:50:24.077Z,2.35
2023-04-16T08:53:05.940Z,3.03
2023-04-16T08:55:38.536Z,2.70
2023-04-16T08:58:23.836Z,1.80
2023-04-16T09:00:51.100Z,2.03
2023-04-16T09:03:21.998Z,1.15
2023-04-16T09:05:49.903Z,1.17
2023-04-16T09:08:18.213Z,1.23
2023-04-16T09:10:45.378Z,1.02
2023-04-16T09:13:16.458Z,0.50
2023-04-16T09:15:44.022Z,0.68
2023-04-16T09:18:12.106Z,0.85
2023-04-16T09:20:41.860Z,0.77
2023-04-16T09:23:10.964Z,0.80
2023-04-16T09:25:38.639Z,0.80
2023-04-16T09:28:05.731Z,1.30
2023-04-16T09:30:33.394Z,0.75
2023-04-16T09:33:17.442Z,0.73
2023-04-16T09:35:49.417Z,1.10
2023-04-16T09:40:43.434Z,0.88
2023-04-16T09:43:14.767Z,1.20
2023-04-16T09:45:55.351Z,1.00
2023-04-16T09:48:33.221Z,1.20
2023-04-16T09:51:01.143Z,1.30
2023-04-16T09:53:32.070Z,1.38
2023-04-16T09:56:01.622Z,1.17
2023-04-16T09:58:29.301Z,1.08
2023-04-16T10:01:03.465Z,1.30
2023-04-16T10:03:34.512Z,1.20
2023-04-16T10:06:22.156Z,1.20
2023-04-16T10:08:54.240Z,1.60
2023-04-16T10:11:21.442Z,2.15
2023-04-16T10:13:48.746Z,2.28
2023-04-16T10:16:15.970Z,2.22
2023-04-16T10:18:44.731Z,1.73
2023-04-16T10:21:13.147Z,3.72
2023-04-16T10:23:40.398Z,1.40
2023-04-16T10:26:07.413Z,1.25
2023-04-16T10:28:37.807Z,1.60
2023-04-16T10:31:07.546Z,2.78
2023-04-16T10:33:36.517Z,2.85
2023-04-16T10:36:16.274Z,3.55
2023-04-16T10:38:49.336Z,3.20
2023-04-16T10:41:17.287Z,4.50
2023-04-16T10:43:46.326Z,4.32
2023-04-16T10:46:22.740Z,3.35
2023-04-16T10:48:52.698Z,1.60
2023-04-16T10:51:28.840Z,1.67
2023-04-16T10:53:57.475Z,1.63
2023-04-16T10:56:26.933Z,1.40
2023-04-16T10:58:57.611Z,1.40
2023-04-16T11:01:36.256Z,1.80
2023-04-16T11:04:26.535Z,1.50
2023-04-16T11:07:18.143Z,1.55
2023-04-16T11:10:03.339Z,1.42
2023-04-16T11:12:30.145Z,1.60
2023-04-16T11:15:08.854Z,1.67
2023-04-16T11:17:40.013Z,1.85
2023-04-16T11:20:21.433Z,11.07
2023-04-16T11:22:49.579Z,2.25
2023-04-16T11:25:27.736Z,1.20
2023-04-16T11:27:54.884Z,1.70
2023-04-16T11:30:42.538Z,1.75
2023-04-16T11:33:11.340Z,1.30
2023-04-16T11:35:39.576Z,1.60
2023-04-16T11:38:07.539Z,1.70
2023-04-16T11:40:34.961Z,1.40
2023-04-16T11:43:14.115Z,1.80
2023-04-16T11:45:56.972Z,1.58
2023-04-16T11:48:24.000Z,1.17
2023-04-16T11:50:58.825Z,1.33
2023-04-16T11:53:25.997Z,1.33
2023-04-16T11:55:52.888Z,1.13
2023-04-16T11:58:20.844Z,1.55
2023-04-16T12:00:53.356Z,1.40
2023-04-16T12:03:44.227Z,1.30
2023-04-16T12:06:11.984Z,1.70
2023-04-16T12:08:38.931Z,1.58
2023-04-16T12:11:06.409Z,1.58
2023-04-16T12:13:39.767Z,1.63
2023-04-16T12:16:19.380Z,1.60
2023-04-16T12:19:04.130Z,1.60
2023-04-16T12:21:44.315Z,1.60
2023-04-16T12:24:13.548Z,1.40
2023-04-16T12:26:48.778Z,1.50
2023-04-16T12:29:23.621Z,2.17
2023-04-16T12:31:51.674Z,1.48
2023-04-16T12:34:20.047Z,1.60
2023-04-16T12:36:48.227Z,1.80
2023-04-16T12:39:18.681Z,1.85
2023-04-16T12:41:45.487Z,1.70
2023-04-16T12:44:18.157Z,1.67
2023-04-16T12:46:46.393Z,2.33
2023-04-16T12:49:13.433Z,2.00
2023-04-16T12:51:40.797Z,1.70
2023-04-16T12:54:10.165Z,1.80
2023-04-16T12:56:37.057Z,1.60
2023-04-16T12:59:03.964Z,1.60
2023-04-16T13:01:31.091Z,1.60
2023-04-16T13:03:58.186Z,1.60
2023-04-16T13:06:26.889Z,2.00
2023-04-16T13:08:53.750Z,2.20
2023-04-16T13:11:20.921Z,2.28
2023-04-16T13:13:47.681Z,2.28
2023-04-16T13:16:14.561Z,2.33
2023-04-16T13:18:41.600Z,2.30
2023-04-16T13:21:08.699Z,1.95
2023-04-16T13:23:35.743Z,2.03
2023-04-16T13:26:02.617Z,2.90
2023-04-16T13:28:29.410Z,2.17
2023-04-16T13:30:56.342Z,2.50
2023-04-16T13:33:23.392Z,2.55
2023-04-16T13:35:50.731Z,2.55
2023-04-16T13:38:17.784Z,1.80
2023-04-16T13:40:44.756Z,2.17
2023-04-16T13:43:11.747Z,2.30
2023-04-16T13:45:38.963Z,2.38
2023-04-16T13:48:05.837Z,2.30
2023-04-16T13:50:32.633Z,2.35
2023-04-16T13:52:59.400Z,2.63
2023-04-16T13:55:26.264Z,2.20
2023-04-16T13:57:53.401Z,2.70
2023-04-16T14:00:20.392Z,2.65
2023-04-16T14:02:48.484Z,2.70
2023-04-16T14:05:15.791Z,2.63
2023-04-16T14:07:42.623Z,3.60
2023-04-16T14:10:10.018Z,2.70
2023-04-16T14:12:37.980Z,2.90
2023-04-16T14:15:06.824Z,3.00
2023-04-16T14:17:33.615Z,2.38
2023-04-16T14:20:00.676Z,2.75
2023-04-16T14:22:27.415Z,2.92
2023-04-16T14:24:54.081Z,2.88
2023-04-16T14:27:21.165Z,2.80
2023-04-16T14:29:48.091Z,2.35
2023-04-16T14:32:14.961Z,2.50
2023-04-16T14:34:41.763Z,2.47
2023-04-16T14:37:08.548Z,2.42
2023-04-16T14:39:36.697Z,2.88
2023-04-16T14:42:03.460Z,2.92
2023-04-16T14:44:30.366Z,2.95
2023-04-16T14:46:57.152Z,3.20
2023-04-16T14:49:26.294Z,2.42
2023-04-16T14:51:53.117Z,2.63
2023-04-16T14:54:20.379Z,2.72
2023-04-16T14:56:47.530Z,2.47
2023-04-16T14:59:14.265Z,2.70
2023-04-16T15:01:41.584Z,2.83
2023-04-16T15:04:08.979Z,2.70
2023-04-16T15:06:36.495Z,2.72
2023-04-16T15:09:04.057Z,3.40
2023-04-16T15:11:31.096Z,5.88
2023-04-16T15:13:57.928Z,4.50
2023-04-16T15:16:24.980Z,4.43
2023-04-16T15:18:51.936Z,4.13
2023-04-16T15:21:18.838Z,3.40
2023-04-16T15:23:45.608Z,5.47
2023-04-16T15:26:12.669Z,8.95
2023-04-16T15:28:39.523Z,4.97
2023-04-16T15:31:06.453Z,5.57
2023-04-16T15:33:33.302Z,6.93
2023-04-16T15:36:00.259Z,4.80
2023-04-16T15:38:28.643Z,4.40
2023-04-16T15:40:57.849Z,3.33
2023-04-16T15:43:29.191Z,3.85
2023-04-16T15:45:57.383Z,4.55
2023-04-16T15:48:24.641Z,4.07
2023-04-16T15:50:52.466Z,3.65
2023-04-16T15:53:19.417Z,3.78
2023-04-16T15:55:46.317Z,4.30
2023-04-16T15:58:13.268Z,4.15
2023-04-16T16:00:40.181Z,4.00
2023-04-16T16:03:07.211Z,4.53
2023-04-16T16:05:34.044Z,4.05
2023-04-16T16:08:01.712Z,3.97
2023-04-16T16:10:28.601Z,3.90
2023-04-16T16:12:57.153Z,13.07
2023-04-16T16:15:23.969Z,4.22
2023-04-16T16:17:52.935Z,4.15
2023-04-16T16:20:22.592Z,5.10
2023-04-16T16:22:49.943Z,4.20
2023-04-16T16:25:17.313Z,3.65
2023-04-16T16:27:44.226Z,3.50
2023-04-16T16:30:11.518Z,3.33
2023-04-16T16:32:40.926Z,3.55
2023-04-16T16:35:11.596Z,4.60
2023-04-16T16:37:38.804Z,4.40
2023-04-16T16:40:06.151Z,6.15
2023-04-16T16:42:33.298Z,3.58
2023-04-16T16:45:00.219Z,3.58
2023-04-16T16:47:27.080Z,3.35
2023-04-16T16:49:54.641Z,3.60
2023-04-16T16:52:25.750Z,3.83
2023-04-16T16:54:56.888Z,4.55
2023-04-16T16:57:24.050Z,4.20
2023-04-16T16:59:51.140Z,4.15
2023-04-16T17:02:18.637Z,4.28
2023-04-16T17:04:45.544Z,4.25
2023-04-16T17:07:12.407Z,5.88
2023-04-16T17:12:20.366Z,3.58
2023-04-16T17:14:50.910Z,3.88
2023-04-16T17:17:17.961Z,5.10
2023-04-16T17:19:44.751Z,4.20
2023-04-16T17:22:12.985Z,5.50
2023-04-16T17:24:39.947Z,4.95
2023-04-16T17:27:07.454Z,4.32
2023-04-16T17:29:35.426Z,4.70
2023-04-16T17:32:02.253Z,1.88
2023-04-16T17:34:29.288Z,1.73
2023-04-16T17:36:56.084Z,1.67
2023-04-16T17:39:22.986Z,2.20
2023-04-16T17:41:54.285Z,2.20
2023-04-16T17:44:23.306Z,2.25
2023-04-16T17:46:50.114Z,1.90
2023-04-16T17:49:16.869Z,1.80
2023-04-16T17:51:44.665Z,3.95
2023-04-16T17:54:11.898Z,2.50
2023-04-16T17:56:38.922Z,3.58
2023-04-16T17:59:06.033Z,2.55
2023-04-16T18:01:32.850Z,2.85
2023-04-16T18:03:59.856Z,2.15
2023-04-16T18:06:27.713Z,1.60
2023-04-16T18:08:54.624Z,2.10
2023-04-16T18:11:21.681Z,2.05
2023-04-16T18:13:52.920Z,2.33
2023-04-16T18:16:19.993Z,2.13
2023-04-16T18:18:50.108Z,1.83
2023-04-16T18:21:16.945Z,1.80
2023-04-16T18:23:43.790Z,1.70
2023-04-16T18:26:11.277Z,2.15
2023-04-16T18:28:39.254Z,1.80
2023-04-16T18:31:07.905Z,1.65
2023-04-16T18:33:54.081Z,2.58
2023-04-16T18:36:22.462Z,1.40
2023-04-16T18:39:00.370Z,1.42
2023-04-16T18:41:29.008Z,2.50
2023-04-16T18:43:55.941Z,3.25
2023-04-16T18:46:23.153Z,2.13
2023-04-16T18:48:50.045Z,1.83
2023-04-16T18:51:17.018Z,1.40
2023-04-16T18:53:45.712Z,1.80
2023-04-16T18:56:12.872Z,1.60
2023-04-16T18:58:39.786Z,1.67
2023-04-16T19:01:11.307Z,1.67
2023-04-16T19:03:38.880Z,2.08
2023-04-16T19:06:06.252Z,1.40
2023-04-16T19:08:33.230Z,1.70
2023-04-16T19:13:40.744Z,2.47
2023-04-16T19:16:11.580Z,4.82
2023-04-16T19:18:39.353Z,3.53
2023-04-16T19:21:07.197Z,5.50
2023-04-16T19:23:34.158Z,3.17
2023-04-16T19:26:01.726Z,3.65
2023-04-16T19:28:28.824Z,3.47
2023-04-16T19:30:56.172Z,3.10
2023-04-16T19:33:23.124Z,3.35
2023-04-16T19:35:50.066Z,3.05
2023-04-16T19:38:17.125Z,3.40
2023-04-16T19:40:46.183Z,3.72
2023-04-16T19:43:13.234Z,5.07
2023-04-16T19:45:48.628Z,4.65
2023-04-16T19:48:15.506Z,3.53
2023-04-16T19:50:43.723Z,3.78
2023-04-16T19:53:11.234Z,3.30
2023-04-16T19:55:42.329Z,5.22
2023-04-16T19:58:14.662Z,4.60
2023-04-16T20:00:42.115Z,3.53
2023-04-16T20:03:09.578Z,3.28
2023-04-16T20:05:37.286Z,3.05
2023-04-16T20:08:04.637Z,3.50
2023-04-16T20:10:31.793Z,3.75
2023-04-16T20:12:59.229Z,2.70
2023-04-16T20:15:26.381Z,3.55
2023-04-16T20:17:53.468Z,3.35
2023-04-16T20:20:24.127Z,3.55
2023-04-16T20:22:50.953Z,4.28
2023-04-16T20:25:21.640Z,3.88
2023-04-16T20:27:48.523Z,4.00
2023-04-16T20:30:15.574Z,3.60
2023-04-16T20:32:42.568Z,3.60
2023-04-16T20:35:11.110Z,3.22
2023-04-16T20:37:42.182Z,3.55
2023-04-16T20:40:10.036Z,3.30
2023-04-16T20:42:36.958Z,3.72
2023-04-16T20:45:05.137Z,3.58
2023-04-16T20:47:35.116Z,3.55
2023-04-16T20:50:02.971Z,3.40
2023-04-16T20:52:29.912Z,3.42
2023-04-16T20:54:56.915Z,3.17
2023-04-16T20:57:23.975Z,3.72
2023-04-16T20:59:51.126Z,3.72
2023-04-16T21:02:18.144Z,3.88
2023-04-16T21:04:45.627Z,4.43
2023-04-16T21:07:12.495Z,4.35
2023-04-16T21:09:39.246Z,4.43
2023-04-16T21:12:06.902Z,4.38
2023-04-16T21:14:34.052Z,5.25
2023-04-16T21:17:00.890Z,3.67
2023-04-16T21:19:27.672Z,4.00
2023-04-16T21:21:54.631Z,4.10
2023-04-16T21:24:21.509Z,4.15
2023-04-16T21:26:48.419Z,3.85
2023-04-16T21:29:15.366Z,3.80
2023-04-16T21:31:42.229Z,3.60
2023-04-16T21:34:09.044Z,6.10
2023-04-16T21:36:35.859Z,3.35
2023-04-16T21:39:02.719Z,3.47
2023-04-16T21:41:29.616Z,3.65
2023-04-16T21:43:56.434Z,3.75
2023-04-16T21:46:23.457Z,3.10
2023-04-16T21:48:50.873Z,3.72
2023-04-16T21:51:18.056Z,3.70
2023-04-16T21:53:44.831Z,3.70
2023-04-16T21:56:11.650Z,3.50
2023-04-16T21:58:38.561Z,3.42
2023-04-16T22:01:05.466Z,3.90
2023-04-16T22:03:33.602Z,3.67
2023-04-16T22:06:01.503Z,3.72
2023-04-16T22:08:31.799Z,3.65
2023-04-16T22:11:02.779Z,4.07
2023-04-16T22:13:33.387Z,3.53
2023-04-16T22:16:03.406Z,3.45
2023-04-16T22:18:33.082Z,3.20
2023-04-16T22:21:00.213Z,3.40
2023-04-16T22:23:27.037Z,3.63
2023-04-16T22:25:55.480Z,3.60
2023-04-16T22:28:22.768Z,4.25
2023-04-16T22:30:49.857Z,3.85
2023-04-16T22:33:16.754Z,3.40
2023-04-16T22:35:43.666Z,3.45
2023-04-16T22:38:10.796Z,3.92
2023-04-16T22:40:37.736Z,3.35
2023-04-16T22:43:05.031Z,2.58
2023-04-16T22:45:31.870Z,3.72
2023-04-16T22:47:58.745Z,2.72
2023-04-16T22:50:25.686Z,3.47
2023-04-16T22:52:52.433Z,3.20
2023-04-16T22:55:19.475Z,3.35
2023-04-16T22:57:47.439Z,4.28
2023-04-16T23:00:16.920Z,3.28
2023-04-16T23:02:44.264Z,3.40
2023-04-16T23:05:11.729Z,3.15
2023-04-16T23:07:38.958Z,3.45
2023-04-16T23:10:06.388Z,3.55
2023-04-16T23:12:33.235Z,3.03
2023-04-16T23:15:00.913Z,2.95
2023-04-16T23:17:28.041Z,3.20
2023-04-16T23:19:54.942Z,3.40
2023-04-16T23:22:21.720Z,3.42
2023-04-16T23:24:48.528Z,3.78
2023-04-16T23:27:15.641Z,3.28
2023-04-16T23:29:42.485Z,3.22
2023-04-16T23:32:09.167Z,2.70
2023-04-16T23:34:36.298Z,2.95
2023-04-16T23:37:03.144Z,3.28
2023-04-16T23:39:29.910Z,3.60
2023-04-16T23:41:57.660Z,3.08
2023-04-16T23:44:24.536Z,2.85
2023-04-16T23:46:51.417Z,2.42
2023-04-16T23:49:18.222Z,2.85
2023-04-16T23:51:45.164Z,2.92
2023-04-16T23:54:11.930Z,2.40
2023-04-16T23:56:38.763Z,2.85
2023-04-16T23:59:05.592Z,2.90
